createdAt,value
2022-12-22T00:00:08.688Z,99.90
2022-12-22T00:03:00.477Z,99.90
2022-12-22T00:05:46.077Z,99.90
2022-12-22T00:08:31.542Z,99.90
2022-12-22T00:11:18.786Z,99.90
2022-12-22T00:14:05.336Z,99.90
2022-12-22T00:16:55.700Z,99.90
2022-12-22T00:19:42.068Z,99.90
2022-12-22T00:22:54.215Z,99.90
2022-12-22T00:25:39.609Z,99.90
2022-12-22T00:28:32.937Z,99.90
2022-12-22T00:31:18.865Z,99.90
2022-12-22T00:34:04.581Z,99.90
2022-12-22T00:36:50.146Z,99.90
2022-12-22T00:39:35.642Z,99.90
2022-12-22T00:42:21.305Z,99.90
2022-12-22T00:45:06.750Z,99.90
2022-12-22T00:47:52.912Z,99.90
2022-12-22T00:50:48.236Z,99.90
2022-12-22T00:53:33.626Z,99.90
2022-12-22T00:56:19.261Z,99.90
2022-12-22T00:59:04.801Z,99.90
2022-12-22T01:01:50.785Z,99.90
2022-12-22T01:04:36.577Z,99.90
2022-12-22T01:07:23.282Z,99.90
2022-12-22T01:10:11.224Z,99.90
2022-12-22T01:12:59.173Z,99.90
2022-12-22T01:15:46.945Z,99.90
2022-12-22T01:18:33.279Z,99.90
2022-12-22T01:21:19.164Z,99.90
2022-12-22T01:24:04.496Z,99.90
2022-12-22T01:26:50.179Z,99.90
2022-12-22T01:29:35.656Z,99.90
2022-12-22T01:32:21.250Z,99.90
2022-12-22T01:35:06.929Z,99.90
2022-12-22T01:37:52.331Z,99.90
2022-12-22T01:40:41.838Z,99.90
2022-12-22T01:43:39.079Z,99.90
2022-12-22T01:46:50.589Z,99.90
2022-12-22T01:49:56.366Z,99.90
2022-12-22T01:52:47.266Z,99.90
2022-12-22T01:55:35.930Z,99.90
2022-12-22T01:58:21.373Z,99.90
2022-12-22T02:01:06.899Z,99.90
2022-12-22T02:03:52.628Z,99.90
2022-12-22T02:06:53.077Z,99.90
2022-12-22T02:09:58.637Z,99.90
2022-12-22T02:13:03.839Z,99.90
2022-12-22T02:16:05.063Z,99.90
2022-12-22T02:18:57.457Z,99.90
2022-12-22T02:21:46.954Z,99.90
2022-12-22T02:24:54.373Z,99.90
2022-12-22T02:27:40.417Z,99.90
2022-12-22T02:30:27.700Z,99.90
2022-12-22T02:33:13.634Z,99.90
2022-12-22T02:36:27.518Z,99.90
2022-12-22T02:39:29.611Z,99.90
2022-12-22T02:42:26.464Z,99.90
2022-12-22T02:45:46.322Z,99.90
2022-12-22T02:49:04.153Z,99.90
2022-12-22T02:51:55.245Z,99.90
2022-12-22T02:54:42.824Z,99.90
2022-12-22T02:57:28.308Z,99.90
2022-12-22T03:00:13.856Z,99.90
2022-12-22T03:02:59.602Z,99.90
2022-12-22T03:05:45.546Z,99.90
2022-12-22T03:08:30.918Z,99.90
2022-12-22T03:11:16.347Z,99.90
2022-12-22T03:14:01.976Z,99.90
2022-12-22T03:16:47.479Z,99.90
2022-12-22T03:19:32.847Z,99.90
2022-12-22T03:22:18.271Z,99.90
2022-12-22T03:25:03.733Z,99.90
2022-12-22T03:27:31.079Z,99.90
2022-12-22T03:29:58.059Z,99.90
2022-12-22T03:32:25.005Z,99.90
2022-12-22T03:34:51.965Z,99.90
2022-12-22T03:37:18.904Z,99.90
2022-12-22T03:39:45.881Z,99.90
2022-12-22T03:42:31.477Z,99.90
2022-12-22T03:45:17.283Z,99.90
2022-12-22T03:47:44.258Z,99.90
2022-12-22T03:50:11.349Z,99.90
2022-12-22T03:52:38.346Z,99.90
2022-12-22T03:55:05.848Z,99.90
2022-12-22T03:57:32.915Z,99.90
2022-12-22T03:59:59.895Z,99.90
2022-12-22T04:02:26.939Z,99.90
2022-12-22T04:04:54.008Z,99.90
2022-12-22T04:07:21.002Z,99.90
2022-12-22T04:10:06.696Z,99.90
2022-12-22T04:12:52.284Z,99.90
2022-12-22T04:15:19.284Z,99.90
2022-12-22T04:17:46.213Z,99.90
2022-12-22T04:20:13.563Z,99.90
2022-12-22T04:22:40.539Z,99.90
2022-12-22T04:25:08.143Z,99.90
2022-12-22T04:27:35.258Z,99.90
2022-12-22T04:30:02.452Z,99.90
2022-12-22T04:32:29.433Z,99.90
2022-12-22T04:34:56.373Z,99.90
2022-12-22T04:37:23.410Z,99.90
2022-12-22T04:39:50.463Z,99.90
2022-12-22T04:42:17.448Z,99.90
2022-12-22T04:44:44.400Z,99.90
2022-12-22T04:47:11.402Z,99.90
2022-12-22T04:49:38.377Z,99.90
2022-12-22T04:52:05.523Z,99.90
2022-12-22T04:54:32.535Z,99.90
2022-12-22T04:56:59.705Z,99.90
2022-12-22T04:59:26.853Z,99.90
2022-12-22T05:01:53.862Z,99.90
2022-12-22T05:04:23.828Z,99.90
2022-12-22T05:06:51.108Z,99.90
2022-12-22T05:09:18.052Z,99.90
2022-12-22T05:11:45.034Z,99.90
2022-12-22T05:14:11.947Z,99.90
2022-12-22T05:16:38.988Z,99.90
2022-12-22T05:19:06.091Z,99.90
2022-12-22T05:21:33.076Z,99.90
2022-12-22T05:24:00.037Z,99.90
2022-12-22T05:26:27.094Z,99.90
2022-12-22T05:28:54.156Z,99.90
2022-12-22T05:31:23.228Z,99.90
2022-12-22T05:33:50.650Z,99.90
2022-12-22T05:36:17.713Z,99.90
2022-12-22T05:38:44.830Z,99.90
2022-12-22T05:41:11.878Z,99.90
2022-12-22T05:43:39.505Z,99.90
2022-12-22T05:46:10.034Z,99.90
2022-12-22T05:48:39.405Z,99.90
2022-12-22T05:51:08.968Z,99.90
2022-12-22T05:53:36.645Z,99.90
2022-12-22T05:56:03.824Z,99.90
2022-12-22T05:58:30.845Z,99.90
2022-12-22T06:00:59.004Z,99.90
2022-12-22T06:03:27.583Z,99.90
2022-12-22T06:05:55.718Z,99.90
2022-12-22T06:08:23.580Z,99.90
2022-12-22T06:10:51.095Z,99.90
2022-12-22T06:13:18.096Z,99.90
2022-12-22T06:15:45.171Z,99.90
2022-12-22T06:18:13.321Z,99.90
2022-12-22T06:20:40.392Z,99.90
2022-12-22T06:23:08.424Z,99.90
2022-12-22T06:25:35.480Z,99.90
2022-12-22T06:28:02.476Z,99.90
2022-12-22T06:30:33.501Z,99.90
2022-12-22T06:33:01.365Z,99.90
2022-12-22T06:35:28.708Z,99.90
2022-12-22T06:37:55.928Z,99.90
2022-12-22T06:40:22.901Z,99.90
2022-12-22T06:43:09.537Z,99.90
2022-12-22T06:45:40.032Z,99.90
2022-12-22T06:48:08.234Z,99.90
2022-12-22T06:50:35.517Z,99.90
2022-12-22T06:53:03.978Z,99.90
2022-12-22T06:55:31.031Z,99.90
2022-12-22T06:57:57.992Z,99.90
2022-12-22T07:00:25.133Z,99.90
2022-12-22T07:02:52.294Z,99.90
2022-12-22T07:05:19.585Z,99.90
2022-12-22T07:07:46.510Z,99.90
2022-12-22T07:10:13.407Z,99.90
2022-12-22T07:12:40.424Z,99.90
2022-12-22T07:15:08.980Z,99.90
2022-12-22T07:17:36.343Z,99.90
2022-12-22T07:20:03.457Z,99.90
2022-12-22T07:22:31.224Z,99.90
2022-12-22T07:24:58.764Z,99.90
2022-12-22T07:27:25.931Z,99.90
2022-12-22T07:29:52.897Z,99.90
2022-12-22T07:32:19.826Z,99.90
2022-12-22T07:34:46.763Z,99.90
2022-12-22T07:37:13.874Z,99.90
2022-12-22T07:39:40.878Z,99.90
2022-12-22T07:42:26.116Z,99.90
2022-12-22T07:44:53.084Z,99.90
2022-12-22T07:47:20.027Z,99.90
2022-12-22T07:50:05.560Z,99.90
2022-12-22T07:52:32.719Z,99.90
2022-12-22T07:54:59.642Z,99.90
2022-12-22T07:57:26.564Z,99.90
2022-12-22T07:59:53.903Z,99.90
2022-12-22T08:02:20.983Z,99.90
2022-12-22T08:04:48.072Z,99.90
2022-12-22T08:07:15.148Z,99.90
2022-12-22T08:09:42.076Z,99.90
2022-12-22T08:12:09.004Z,99.90
2022-12-22T08:14:35.959Z,99.90
2022-12-22T08:17:02.813Z,99.90
2022-12-22T08:19:29.813Z,99.90
2022-12-22T08:21:56.745Z,99.90
2022-12-22T08:24:23.672Z,99.90
2022-12-22T08:26:55.877Z,99.90
2022-12-22T08:29:42.998Z,99.90
2022-12-22T08:32:11.461Z,99.90
2022-12-22T08:34:38.695Z,99.90
2022-12-22T08:37:10.550Z,99.90
2022-12-22T08:39:40.540Z,99.90
2022-12-22T08:42:10.948Z,99.90
2022-12-22T08:44:40.956Z,99.90
2022-12-22T08:47:13.033Z,99.90
2022-12-22T08:49:43.507Z,99.90
2022-12-22T08:52:16.035Z,99.90
2022-12-22T08:54:45.210Z,99.90
2022-12-22T08:57:12.216Z,99.90
2022-12-22T08:59:39.266Z,99.90
2022-12-22T09:02:06.250Z,99.90
2022-12-22T09:04:34.202Z,99.90
2022-12-22T09:07:02.691Z,99.90
2022-12-22T09:09:34.395Z,99.90
2022-12-22T09:12:02.251Z,99.90
2022-12-22T09:14:30.468Z,99.90
2022-12-22T09:16:57.443Z,99.90
2022-12-22T09:19:24.502Z,99.90
2022-12-22T09:21:51.428Z,99.90
2022-12-22T09:24:18.515Z,99.90
2022-12-22T09:26:45.437Z,99.90
2022-12-22T09:29:15.587Z,99.90
2022-12-22T09:31:43.176Z,99.90
2022-12-22T09:34:16.792Z,99.90
2022-12-22T09:36:44.987Z,99.90
2022-12-22T09:39:12.088Z,99.90
2022-12-22T09:41:54.575Z,99.90
2022-12-22T09:44:26.299Z,99.90
2022-12-22T09:46:55.587Z,99.90
2022-12-22T09:49:23.044Z,99.90
2022-12-22T09:52:02.406Z,99.90
2022-12-22T09:54:30.326Z,99.90
2022-12-22T09:56:58.284Z,99.90
2022-12-22T09:59:29.135Z,99.90
2022-12-22T10:02:14.640Z,99.90
2022-12-22T10:04:59.069Z,99.90
2022-12-22T10:07:31.032Z,99.90
2022-12-22T10:10:05.476Z,99.90
2022-12-22T10:12:32.403Z,99.90
2022-12-22T10:14:59.333Z,99.90
2022-12-22T10:17:34.566Z,99.90
2022-12-22T10:20:20.393Z,99.90
2022-12-22T10:22:58.785Z,99.90
2022-12-22T10:26:08.878Z,99.90
2022-12-22T10:28:35.187Z,99.90
2022-12-22T10:31:23.866Z,99.90
2022-12-22T10:34:24.995Z,99.90
2022-12-22T10:36:56.551Z,99.90
2022-12-22T10:39:35.513Z,99.90
2022-12-22T10:42:10.290Z,99.90
2022-12-22T10:44:38.729Z,99.90
2022-12-22T10:47:19.521Z,99.90
2022-12-22T10:49:49.557Z,99.90
2022-12-22T10:52:27.364Z,99.90
2022-12-22T10:55:28.661Z,99.90
2022-12-22T10:58:17.320Z,99.90
2022-12-22T11:00:47.558Z,99.90
2022-12-22T11:03:28.612Z,99.90
2022-12-22T11:05:57.483Z,99.90
2022-12-22T11:08:25.395Z,99.90
2022-12-22T11:11:05.811Z,99.90
2022-12-22T11:13:58.766Z,99.90
2022-12-22T11:16:25.714Z,99.90
2022-12-22T11:19:17.689Z,99.90
2022-12-22T11:21:52.554Z,99.90
2022-12-22T11:24:38.751Z,99.90
2022-12-22T11:27:27.894Z,99.90
2022-12-22T11:30:19.970Z,99.90
2022-12-22T11:33:24.319Z,99.50
2022-12-22T11:36:01.459Z,98.00
2022-12-22T11:38:54.044Z,96.50
2022-12-22T11:41:46.797Z,95.40
2022-12-22T11:44:25.582Z,93.20
2022-12-22T11:46:54.738Z,92.30
2022-12-22T11:49:45.730Z,90.00
2022-12-22T11:52:55.236Z,85.40
2022-12-22T11:55:34.672Z,77.90
2022-12-22T11:58:23.944Z,72.70
2022-12-22T12:01:26.211Z,70.90
2022-12-22T12:04:18.831Z,71.90
2022-12-22T12:07:26.024Z,72.70
2022-12-22T12:10:23.431Z,71.20
2022-12-22T12:13:03.687Z,72.20
2022-12-22T12:15:41.181Z,69.50
2022-12-22T12:18:15.753Z,68.20
2022-12-22T12:20:48.408Z,66.70
2022-12-22T12:23:52.595Z,63.60
2022-12-22T12:26:22.946Z,63.10
2022-12-22T12:29:11.536Z,63.10
2022-12-22T12:31:46.480Z,60.10
2022-12-22T12:34:17.482Z,60.40
2022-12-22T12:36:59.205Z,61.00
2022-12-22T12:40:02.598Z,59.80
2022-12-22T12:42:37.574Z,58.60
2022-12-22T12:45:24.713Z,59.50
2022-12-22T12:47:51.644Z,59.30
2022-12-22T12:50:33.926Z,59.80
2022-12-22T12:53:07.349Z,59.70
2022-12-22T12:55:52.909Z,59.60
2022-12-22T12:58:38.280Z,60.20
2022-12-22T13:01:32.766Z,61.00
2022-12-22T13:04:04.719Z,60.40
2022-12-22T13:06:50.960Z,60.60
2022-12-22T13:12:40.888Z,60.90
2022-12-22T13:15:34.905Z,61.40
2022-12-22T13:18:03.243Z,60.80
2022-12-22T13:20:36.083Z,62.00
2022-12-22T13:23:11.269Z,62.50
2022-12-22T13:25:48.260Z,62.80
2022-12-22T13:28:18.094Z,62.80
2022-12-22T13:31:00.080Z,63.00
2022-12-22T13:33:31.965Z,63.10
2022-12-22T13:35:59.943Z,63.70
2022-12-22T13:38:29.331Z,64.00
2022-12-22T13:41:02.879Z,64.10
2022-12-22T13:43:32.268Z,64.40
2022-12-22T13:46:02.147Z,64.60
2022-12-22T13:48:44.701Z,65.10
2022-12-22T13:51:35.743Z,65.90
2022-12-22T13:54:24.853Z,66.80
2022-12-22T13:56:54.488Z,67.00
2022-12-22T13:59:35.597Z,67.30
2022-12-22T14:02:13.995Z,68.00
2022-12-22T14:04:43.673Z,69.00
2022-12-22T14:07:14.805Z,70.20
2022-12-22T14:09:50.210Z,71.30
2022-12-22T14:12:22.020Z,72.40
2022-12-22T14:14:51.237Z,73.60
2022-12-22T14:17:25.025Z,74.60
2022-12-22T14:19:56.406Z,75.70
2022-12-22T14:22:31.237Z,76.30
2022-12-22T14:25:06.695Z,77.20
2022-12-22T14:27:38.552Z,78.50
2022-12-22T14:30:14.939Z,79.50
2022-12-22T14:32:49.222Z,80.20
2022-12-22T14:35:21.150Z,81.30
2022-12-22T14:37:50.148Z,82.30
2022-12-22T14:40:37.422Z,83.20
2022-12-22T14:43:08.039Z,84.60
2022-12-22T14:45:34.993Z,85.00
2022-12-22T14:48:01.988Z,85.70
2022-12-22T14:50:30.415Z,86.30
2022-12-22T14:52:59.977Z,87.00
2022-12-22T14:55:29.721Z,87.70
2022-12-22T14:58:05.005Z,88.40
2022-12-22T15:00:55.099Z,89.00
2022-12-22T15:03:25.154Z,89.60
2022-12-22T15:05:53.156Z,90.20
2022-12-22T15:08:40.350Z,90.40
2022-12-22T15:11:13.599Z,91.00
2022-12-22T15:13:40.651Z,91.10
2022-12-22T15:16:14.046Z,91.30
2022-12-22T15:18:41.995Z,91.60
2022-12-22T15:21:12.482Z,91.80
2022-12-22T15:23:39.681Z,92.00
2022-12-22T15:26:07.155Z,92.30
2022-12-22T15:28:34.490Z,93.10
2022-12-22T15:31:02.729Z,93.00
2022-12-22T15:33:30.628Z,93.40
2022-12-22T15:35:57.763Z,93.70
2022-12-22T15:38:25.690Z,94.10
2022-12-22T15:40:52.688Z,94.60
2022-12-22T15:46:07.258Z,95.60
2022-12-22T15:48:38.144Z,96.70
2022-12-22T15:51:07.444Z,97.10
2022-12-22T15:53:34.814Z,97.70
2022-12-22T15:56:01.995Z,98.90
2022-12-22T15:58:33.235Z,99.40
2022-12-22T16:01:00.362Z,99.90
2022-12-22T16:03:27.419Z,99.90
2022-12-22T16:05:54.779Z,99.90
2022-12-22T16:08:29.031Z,99.90
2022-12-22T16:10:56.102Z,99.90
2022-12-22T16:13:27.047Z,99.90
2022-12-22T16:15:56.296Z,99.90
2022-12-22T16:18:23.345Z,99.90
2022-12-22T16:20:50.887Z,99.90
2022-12-22T16:23:24.180Z,99.90
2022-12-22T16:26:00.620Z,99.90
2022-12-22T16:28:28.996Z,99.90
2022-12-22T16:30:56.016Z,99.90
2022-12-22T16:33:23.011Z,99.90
2022-12-22T16:35:49.954Z,99.90
2022-12-22T16:38:19.268Z,99.90
2022-12-22T16:40:50.397Z,99.90
2022-12-22T16:43:50.880Z,99.90
2022-12-22T16:46:21.064Z,99.90
2022-12-22T16:48:54.344Z,99.90
2022-12-22T16:51:33.829Z,99.90
2022-12-22T16:54:01.924Z,99.90
2022-12-22T16:56:30.853Z,99.90
2022-12-22T16:58:58.125Z,99.90
2022-12-22T17:01:45.240Z,99.90
2022-12-22T17:04:24.471Z,99.90
2022-12-22T17:06:53.626Z,99.90
2022-12-22T17:09:31.012Z,99.90
2022-12-22T17:11:59.341Z,99.90
2022-12-22T17:14:28.792Z,99.90
2022-12-22T17:16:55.822Z,99.90
2022-12-22T17:19:22.817Z,99.90
2022-12-22T17:21:51.032Z,99.90
2022-12-22T17:24:24.341Z,99.90
2022-12-22T17:26:54.769Z,99.90
2022-12-22T17:29:23.743Z,99.90
2022-12-22T17:31:51.946Z,99.90
2022-12-22T17:34:19.597Z,99.90
2022-12-22T17:36:49.268Z,99.90
2022-12-22T17:39:19.474Z,99.90
2022-12-22T17:41:50.647Z,99.90
2022-12-22T17:44:27.540Z,99.90
2022-12-22T17:46:54.702Z,99.90
2022-12-22T17:49:22.958Z,99.90
2022-12-22T17:51:51.126Z,99.90
2022-12-22T17:54:24.280Z,99.90
2022-12-22T17:56:51.634Z,99.90
2022-12-22T17:59:18.592Z,99.90
2022-12-22T18:01:45.695Z,99.90
2022-12-22T18:04:13.577Z,99.90
2022-12-22T18:06:41.975Z,99.90
2022-12-22T18:09:21.597Z,99.90
2022-12-22T18:11:49.350Z,99.90
2022-12-22T18:14:16.462Z,99.90
2022-12-22T18:16:44.025Z,99.90
2022-12-22T18:19:11.047Z,99.90
2022-12-22T18:21:38.025Z,99.90
2022-12-22T18:24:05.641Z,99.90
2022-12-22T18:26:32.868Z,99.90
2022-12-22T18:29:00.032Z,99.90
2022-12-22T18:31:26.996Z,99.90
2022-12-22T18:33:54.112Z,99.90
2022-12-22T18:36:28.806Z,99.90
2022-12-22T18:38:56.651Z,99.90
2022-12-22T18:41:25.623Z,99.90
2022-12-22T18:43:52.618Z,99.90
2022-12-22T18:46:20.328Z,99.90
2022-12-22T18:48:48.573Z,99.90
2022-12-22T18:51:25.523Z,99.90
2022-12-22T18:53:54.613Z,99.90
2022-12-22T18:56:22.281Z,99.90
2022-12-22T18:58:49.322Z,99.90
2022-12-22T19:01:25.873Z,99.90
2022-12-22T19:03:56.118Z,99.90
2022-12-22T19:06:23.669Z,99.90
2022-12-22T19:08:50.888Z,99.90
2022-12-22T19:11:23.387Z,99.90
2022-12-22T19:13:51.459Z,99.90
2022-12-22T19:16:22.995Z,99.90
2022-12-22T19:18:50.071Z,99.90
2022-12-22T19:21:18.302Z,99.90
2022-12-22T19:23:45.937Z,99.90
2022-12-22T19:26:21.879Z,99.90
2022-12-22T19:28:55.355Z,99.90
2022-12-22T19:31:27.651Z,99.90
2022-12-22T19:33:57.825Z,99.90
2022-12-22T19:36:27.990Z,99.90
2022-12-22T19:39:04.740Z,99.90
2022-12-22T19:41:40.180Z,99.90
2022-12-22T19:44:24.286Z,99.90
2022-12-22T19:46:52.142Z,99.90
2022-12-22T19:49:24.412Z,99.90
2022-12-22T19:51:51.894Z,99.90
2022-12-22T19:54:21.829Z,99.90
2022-12-22T19:56:55.805Z,99.90
2022-12-22T19:59:37.608Z,99.90
2022-12-22T20:02:23.594Z,99.90
2022-12-22T20:04:51.528Z,99.90
2022-12-22T20:07:21.412Z,99.90
2022-12-22T20:09:48.733Z,99.90
2022-12-22T20:12:29.968Z,99.90
2022-12-22T20:14:57.592Z,99.90
2022-12-22T20:17:25.499Z,99.90
2022-12-22T20:19:52.490Z,99.90
2022-12-22T20:22:22.621Z,99.90
2022-12-22T20:24:50.654Z,99.90
2022-12-22T20:27:35.630Z,99.90
2022-12-22T20:30:02.558Z,99.90
2022-12-22T20:32:29.532Z,99.90
2022-12-22T20:34:57.001Z,99.90
2022-12-22T20:37:25.212Z,99.90
2022-12-22T20:39:52.152Z,99.90
2022-12-22T20:42:21.208Z,99.90
2022-12-22T20:45:04.056Z,99.90
2022-12-22T20:47:33.743Z,99.90
2022-12-22T20:50:00.926Z,99.90
2022-12-22T20:52:27.924Z,99.90
2022-12-22T20:54:54.858Z,99.90
2022-12-22T20:57:22.949Z,99.90
2022-12-22T20:59:56.157Z,99.90
2022-12-22T21:02:25.287Z,99.90
2022-12-22T21:04:52.420Z,99.90
2022-12-22T21:07:19.450Z,99.90
2022-12-22T21:09:46.443Z,99.90
2022-12-22T21:12:13.409Z,99.90
2022-12-22T21:14:40.323Z,99.90
2022-12-22T21:17:18.961Z,99.90
2022-12-22T21:19:46.005Z,99.90
2022-12-22T21:22:12.922Z,99.90
2022-12-22T21:24:41.687Z,99.90
2022-12-22T21:27:16.785Z,99.90
2022-12-22T21:29:43.880Z,99.90
2022-12-22T21:32:15.373Z,99.90
2022-12-22T21:34:42.697Z,99.90
2022-12-22T21:37:16.650Z,99.90
2022-12-22T21:39:44.908Z,99.90
2022-12-22T21:42:19.640Z,99.90
2022-12-22T21:44:46.913Z,99.90
2022-12-22T21:47:18.208Z,99.90
2022-12-22T21:49:45.823Z,99.90
2022-12-22T21:52:13.011Z,99.90
2022-12-22T21:54:40.130Z,99.90
2022-12-22T21:57:09.708Z,99.90
2022-12-22T21:59:37.553Z,99.90
2022-12-22T22:02:14.144Z,99.90
2022-12-22T22:04:41.277Z,99.90
2022-12-22T22:07:08.288Z,99.90
2022-12-22T22:09:38.095Z,99.90
2022-12-22T22:12:28.436Z,99.90
2022-12-22T22:14:55.513Z,99.90
2022-12-22T22:17:24.756Z,99.90
2022-12-22T22:19:53.890Z,99.90
2022-12-22T22:22:20.845Z,99.90
2022-12-22T22:24:47.948Z,99.90
2022-12-22T22:27:14.984Z,99.90
2022-12-22T22:29:41.853Z,99.90
2022-12-22T22:32:08.937Z,99.90
2022-12-22T22:34:38.641Z,99.90
2022-12-22T22:37:08.159Z,99.90
2022-12-22T22:39:35.156Z,99.90
2022-12-22T22:42:05.836Z,99.90
2022-12-22T22:44:32.752Z,99.90
2022-12-22T22:47:01.916Z,99.90
2022-12-22T22:49:32.498Z,99.90
2022-12-22T22:51:59.444Z,99.90
2022-12-22T22:54:26.722Z,99.90
2022-12-22T22:56:53.867Z,99.90
2022-12-22T22:59:20.912Z,99.90
2022-12-22T23:01:47.888Z,99.90
2022-12-22T23:04:14.973Z,99.90
2022-12-22T23:06:42.091Z,99.90
2022-12-22T23:09:09.802Z,99.90
2022-12-22T23:11:36.854Z,99.90
2022-12-22T23:14:03.799Z,99.90
2022-12-22T23:16:35.704Z,99.90
2022-12-22T23:19:06.609Z,99.90
2022-12-22T23:21:34.218Z,99.90
2022-12-22T23:24:01.347Z,99.90
2022-12-22T23:26:29.112Z,99.90
2022-12-22T23:29:02.607Z,99.90
2022-12-22T23:31:31.361Z,99.90
2022-12-22T23:33:58.442Z,99.90
2022-12-22T23:36:25.507Z,99.90
2022-12-22T23:38:52.671Z,99.90
2022-12-22T23:41:20.156Z,99.90
2022-12-22T23:43:47.114Z,99.90
2022-12-22T23:46:17.097Z,99.90
2022-12-22T23:48:44.527Z,99.90
2022-12-22T23:51:12.114Z,99.90
2022-12-22T23:53:39.046Z,99.90
2022-12-22T23:56:06.314Z,99.90
2022-12-22T23:58:33.310Z,99.90
